This is the latest recevied weather packets stored in our database for station/object AD4WX-13. If no packets are shown the sender has not sent any weather packets the latest 10 day(s).
| Time | Temp. | Humidity | Pressure | Rain* | Wind** | Luminosity | Snow |
|---|---|---|---|---|---|---|---|
| 1777293706 | 19.44° C | 81% | 1012.2 hPa | 0 mm | - | 93 W/m² | - |
| 1777286459 | 15° C | 90% | 1010.4 hPa | 0 mm | - | 0 W/m² | - |
| 1777285787 | 15° C | 90% | 1010.6 hPa | 0 mm | - | 0 W/m² | - |
| 1777282640 | 15° C | 89% | 1010.3 hPa | 0 mm | - | 0 W/m² | - |
| 1777277722 | 15° C | 88% | 1010.5 hPa | 0 mm | - | 0 W/m² | - |
| 1777277014 | 15° C | 87% | 1010.7 hPa | 0 mm | - | 0 W/m² | - |
| 1777276359 | 15° C | 87% | 1010.7 hPa | 0 mm | - | 0 W/m² | - |
| 1777273824 | 15° C | 87% | 1010.7 hPa | 0 mm | - | 0 W/m² | - |
| 1777269592 | 15° C | 86% | 1011.3 hPa | 0 mm | - | 0 W/m² | - |
| 1777259227 | 16.67° C | 83% | 1010.8 hPa | 0 mm | - | 0 W/m² | - |
| 1777256778 | 17.78° C | 80% | 1010.6 hPa | 0 mm | - | 0 W/m² | - |
| 1777254321 | 18.89° C | 77% | 1009.9 hPa | 0 mm | - | 0 W/m² | - |
| 1777249950 | 22.78° C | 67% | 1009.6 hPa | 0 mm | - | 0 W/m² | - |
| 1777240265 | 28.89° C | 41% | 1009 hPa | 0 mm | - | 513 W/m² | - |
| 1777238367 | 29.44° C | 40% | 1008.9 hPa | 0 mm | - | 564 W/m² | - |
| 1777236465 | 29.44° C | 41% | 1009 hPa | 0 mm | - | 768 W/m² | - |
| 1777230873 | 28.33° C | 45% | 1010.1 hPa | 0 mm | - | 387 W/m² | - |
| 1777230165 | 28.33° C | 44% | 1010.3 hPa | 0 mm | - | 664 W/m² | - |
| 1777227669 | 28.33° C | 46% | 1010.6 hPa | 0 mm | - | 974 W/m² | - |
| 1777222762 | 27.78° C | 48% | 1011.2 hPa | 0 mm | - | 1056 W/m² | - |
| 1777221459 | 27.78° C | 50% | 1011.3 hPa | 0 mm | - | 956 W/m² | - |
| 1777219556 | 26.67° C | 55% | 1011.5 hPa | 0 mm | - | 870 W/m² | - |
| 1777218871 | 26.67° C | 59% | 1011.5 hPa | 0 mm | - | 810 W/m² | - |
| 1777216974 | 25.56° C | 64% | 1011.5 hPa | 0 mm | - | 738 W/m² | - |
| 1777216285 | 25° C | 65% | 1011.6 hPa | 0 mm | - | 708 W/m² | - |
* Rain latest hour (hover to see other rain measurements)
** Current wind speed in m/s (hover to see current wind gust speed)